首页
METAR-TAF:

METAR-TAF

机场 :

盧加諾, 瑞士

纬度: 46-00N, 经度: 008-58E, 海拔: 273米

当前天气观测

该预报发布于14分钟前的06:20 UTC
风速2节,风向多变
温度 11°C
湿度 94%
气压 1006 hPa
能见度10公里或以上
少量云层高于200英尺

METAR: LSZA 130620Z VRB02KT 9999 FEW002 11/10 Q1006 NOSIG

时间: 08:34 (06:34 UTC)

预报

该预报发布于1小时和9分钟前的05:25 UTC
预报有效从13日的 06点(UTC)到 13日的 15点(UTC)
风速2节,风向多变
能见度10公里或以上
散云层高于900英尺
成为
从 13日的 06点(UTC)到 13日的 08点(UTC)
能见度10公里或以上
1500米以下无云,无积雨云
成为
从 13日的 09点(UTC)到 13日的 11点(UTC)
能见度10公里或以上
散云层高于10000英尺
几率 30% :
短暂存在
从 13日的 12点(UTC)到 13日的 15点(UTC)
少量云层高于6000英尺, 塔状积云.
阵雨

TAF: LSZA 130525Z 1306/1315 VRB02KT 9999 SCT009 BECMG 1306/1308 CAVOK BECMG 1309/1311 9999 SCT100 PROB30 TEMPO 1312/1315 SHRA FEW060TCU

超过4000个机场的气象观测和天气预报(METAR&TAF报告)。

可查询的气象台以黄色和红色小点在地图上表示。

将鼠标移到小点上方,可查看气象台名称。

然后点击查看天气观测和预报。

如需切换地图:点击带黑十字的绿色按钮放大地图;点击带横线的绿色按钮缩小地图;或者点击绿色箭头查看邻近地区的地图。


METAR-TAF: